sensor_id;sensor_type;location;lat;lon;timestamp;P1;durP1;ratioP1;P2;durP2;ratioP2
69246;SDS011;56358;56.328;43.992;2023-05-18T00:02:00;18.17;;;7.90;;
69246;SDS011;56358;56.328;43.992;2023-05-18T00:04:03;13.48;;;7.32;;
69246;SDS011;56358;56.328;43.992;2023-05-18T00:06:04;17.02;;;7.55;;
69246;SDS011;56358;56.328;43.992;2023-05-18T00:08:06;14.77;;;7.53;;
69246;SDS011;56358;56.328;43.992;2023-05-18T00:10:07;15.82;;;6.97;;
69246;SDS011;56358;56.328;43.992;2023-05-18T00:12:08;14.90;;;7.65;;
69246;SDS011;56358;56.328;43.992;2023-05-18T00:14:09;15.35;;;6.72;;
69246;SDS011;56358;56.328;43.992;2023-05-18T00:16:10;16.10;;;7.07;;
69246;SDS011;56358;56.328;43.992;2023-05-18T00:18:15;16.63;;;7.10;;
69246;SDS011;56358;56.328;43.992;2023-05-18T00:20:15;15.60;;;6.57;;
69246;SDS011;56358;56.328;43.992;2023-05-18T00:22:17;13.18;;;7.43;;
69246;SDS011;56358;56.328;43.992;2023-05-18T00:24:18;14.63;;;6.55;;
69246;SDS011;56358;56.328;43.992;2023-05-18T00:26:19;13.07;;;7.03;;
69246;SDS011;56358;56.328;43.992;2023-05-18T00:28:21;17.45;;;7.95;;
69246;SDS011;56358;56.328;43.992;2023-05-18T00:30:21;11.75;;;7.97;;
69246;SDS011;56358;56.328;43.992;2023-05-18T00:32:24;16.30;;;8.55;;
69246;SDS011;56358;56.328;43.992;2023-05-18T00:34:25;16.42;;;8.23;;
69246;SDS011;56358;56.328;43.992;2023-05-18T00:36:26;15.15;;;8.52;;
69246;SDS011;56358;56.328;43.992;2023-05-18T00:38:27;14.63;;;7.85;;
69246;SDS011;56358;56.328;43.992;2023-05-18T00:40:27;18.58;;;8.30;;
69246;SDS011;56358;56.328;43.992;2023-05-18T00:42:29;15.65;;;8.50;;
69246;SDS011;56358;56.328;43.992;2023-05-18T00:44:29;15.43;;;8.05;;
69246;SDS011;56358;56.328;43.992;2023-05-18T00:46:30;14.23;;;7.95;;
69246;SDS011;56358;56.328;43.992;2023-05-18T00:48:32;13.48;;;7.55;;
69246;SDS011;56358;56.328;43.992;2023-05-18T00:50:32;14.82;;;7.68;;
69246;SDS011;56358;56.328;43.992;2023-05-18T00:52:33;16.23;;;8.45;;
69246;SDS011;56358;56.328;43.992;2023-05-18T00:54:35;18.08;;;8.23;;
69246;SDS011;56358;56.328;43.992;2023-05-18T00:56:36;17.17;;;8.75;;
69246;SDS011;56358;56.328;43.992;2023-05-18T00:58:42;15.75;;;8.38;;
69246;SDS011;56358;56.328;43.992;2023-05-18T01:00:44;15.48;;;8.95;;
69246;SDS011;56358;56.328;43.992;2023-05-18T01:02:44;15.48;;;8.98;;
69246;SDS011;56358;56.328;43.992;2023-05-18T01:04:45;18.75;;;8.77;;
69246;SDS011;56358;56.328;43.992;2023-05-18T01:06:46;19.00;;;9.00;;
69246;SDS011;56358;56.328;43.992;2023-05-18T01:08:47;17.05;;;10.00;;
69246;SDS011;56358;56.328;43.992;2023-05-18T01:10:51;17.38;;;9.65;;
69246;SDS011;56358;56.328;43.992;2023-05-18T01:12:57;17.17;;;9.35;;
69246;SDS011;56358;56.328;43.992;2023-05-18T01:15:09;18.50;;;9.48;;
69246;SDS011;56358;56.328;43.992;2023-05-18T01:21:56;16.43;;;9.13;;
69246;SDS011;56358;56.328;43.992;2023-05-18T01:26:57;15.70;;;9.20;;
69246;SDS011;56358;56.328;43.992;2023-05-18T01:29:00;15.05;;;8.68;;
69246;SDS011;56358;56.328;43.992;2023-05-18T01:31:04;15.10;;;8.55;;
69246;SDS011;56358;56.328;43.992;2023-05-18T01:33:14;14.73;;;8.35;;
69246;SDS011;56358;56.328;43.992;2023-05-18T01:35:15;15.50;;;8.77;;
69246;SDS011;56358;56.328;43.992;2023-05-18T01:37:16;14.35;;;8.68;;
69246;SDS011;56358;56.328;43.992;2023-05-18T01:39:16;14.02;;;8.82;;
69246;SDS011;56358;56.328;43.992;2023-05-18T01:41:21;15.43;;;8.43;;
69246;SDS011;56358;56.328;43.992;2023-05-18T01:43:26;15.20;;;9.60;;
69246;SDS011;56358;56.328;43.992;2023-05-18T01:45:31;15.18;;;9.95;;
69246;SDS011;56358;56.328;43.992;2023-05-18T01:47:32;16.05;;;9.45;;
69246;SDS011;56358;56.328;43.992;2023-05-18T01:51:47;16.52;;;10.00;;
69246;SDS011;56358;56.328;43.992;2023-05-18T01:53:55;14.15;;;9.40;;
69246;SDS011;56358;56.328;43.992;2023-05-18T01:55:59;17.85;;;9.57;;
69246;SDS011;56358;56.328;43.992;2023-05-18T01:58:04;15.25;;;9.73;;
69246;SDS011;56358;56.328;43.992;2023-05-18T02:00:07;16.13;;;9.27;;
69246;SDS011;56358;56.328;43.992;2023-05-18T02:02:09;15.77;;;9.27;;
69246;SDS011;56358;56.328;43.992;2023-05-18T02:04:11;15.65;;;9.65;;
69246;SDS011;56358;56.328;43.992;2023-05-18T02:06:11;13.48;;;9.05;;
69246;SDS011;56358;56.328;43.992;2023-05-18T02:08:12;16.67;;;9.45;;
69246;SDS011;56358;56.328;43.992;2023-05-18T02:10:13;16.02;;;9.20;;
69246;SDS011;56358;56.328;43.992;2023-05-18T02:12:14;14.15;;;9.32;;
69246;SDS011;56358;56.328;43.992;2023-05-18T02:14:15;15.57;;;8.95;;
69246;SDS011;56358;56.328;43.992;2023-05-18T02:16:15;15.80;;;8.95;;
69246;SDS011;56358;56.328;43.992;2023-05-18T02:18:16;13.75;;;8.95;;
69246;SDS011;56358;56.328;43.992;2023-05-18T02:20:17;15.18;;;8.38;;
69246;SDS011;56358;56.328;43.992;2023-05-18T02:22:18;14.43;;;8.25;;
69246;SDS011;56358;56.328;43.992;2023-05-18T02:24:18;16.27;;;9.00;;
69246;SDS011;56358;56.328;43.992;2023-05-18T02:26:19;15.75;;;8.63;;
69246;SDS011;56358;56.328;43.992;2023-05-18T02:28:20;13.80;;;8.13;;
69246;SDS011;56358;56.328;43.992;2023-05-18T02:30:22;14.95;;;9.15;;
69246;SDS011;56358;56.328;43.992;2023-05-18T02:32:22;14.43;;;8.82;;
69246;SDS011;56358;56.328;43.992;2023-05-18T02:34:23;14.77;;;9.27;;
69246;SDS011;56358;56.328;43.992;2023-05-18T02:36:24;15.10;;;9.27;;
69246;SDS011;56358;56.328;43.992;2023-05-18T02:38:25;14.07;;;8.35;;
69246;SDS011;56358;56.328;43.992;2023-05-18T02:40:25;14.35;;;8.75;;
69246;SDS011;56358;56.328;43.992;2023-05-18T02:42:26;14.10;;;8.52;;
69246;SDS011;56358;56.328;43.992;2023-05-18T02:44:27;12.95;;;8.45;;
69246;SDS011;56358;56.328;43.992;2023-05-18T02:46:27;13.32;;;7.72;;
69246;SDS011;56358;56.328;43.992;2023-05-18T02:48:28;16.52;;;8.95;;
69246;SDS011;56358;56.328;43.992;2023-05-18T02:50:29;15.30;;;8.55;;
69246;SDS011;56358;56.328;43.992;2023-05-18T02:52:30;13.65;;;8.48;;
69246;SDS011;56358;56.328;43.992;2023-05-18T02:54:33;13.52;;;9.30;;
69246;SDS011;56358;56.328;43.992;2023-05-18T02:56:33;13.57;;;7.90;;
69246;SDS011;56358;56.328;43.992;2023-05-18T02:58:34;12.98;;;8.20;;
69246;SDS011;56358;56.328;43.992;2023-05-18T03:00:35;13.57;;;8.45;;
69246;SDS011;56358;56.328;43.992;2023-05-18T03:02:36;14.63;;;7.90;;
69246;SDS011;56358;56.328;43.992;2023-05-18T03:04:38;12.27;;;7.30;;
69246;SDS011;56358;56.328;43.992;2023-05-18T03:06:39;14.27;;;8.40;;
69246;SDS011;56358;56.328;43.992;2023-05-18T03:08:40;12.98;;;7.60;;
69246;SDS011;56358;56.328;43.992;2023-05-18T03:10:41;11.95;;;7.97;;
69246;SDS011;56358;56.328;43.992;2023-05-18T03:12:42;11.30;;;7.93;;
69246;SDS011;56358;56.328;43.992;2023-05-18T03:14:43;14.60;;;8.70;;
69246;SDS011;56358;56.328;43.992;2023-05-18T03:16:44;12.57;;;8.52;;
69246;SDS011;56358;56.328;43.992;2023-05-18T03:18:44;13.00;;;8.05;;
69246;SDS011;56358;56.328;43.992;2023-05-18T03:20:46;13.20;;;8.23;;
69246;SDS011;56358;56.328;43.992;2023-05-18T03:22:46;13.25;;;8.30;;
69246;SDS011;56358;56.328;43.992;2023-05-18T03:24:47;15.68;;;8.23;;
69246;SDS011;56358;56.328;43.992;2023-05-18T03:26:50;15.30;;;8.70;;
69246;SDS011;56358;56.328;43.992;2023-05-18T03:28:53;15.63;;;8.30;;
69246;SDS011;56358;56.328;43.992;2023-05-18T03:30:54;15.70;;;9.15;;
69246;SDS011;56358;56.328;43.992;2023-05-18T03:32:55;17.00;;;9.65;;
69246;SDS011;56358;56.328;43.992;2023-05-18T03:34:56;16.70;;;9.40;;
69246;SDS011;56358;56.328;43.992;2023-05-18T03:37:00;18.85;;;10.30;;
69246;SDS011;56358;56.328;43.992;2023-05-18T03:39:01;16.45;;;9.75;;
69246;SDS011;56358;56.328;43.992;2023-05-18T03:41:02;13.55;;;8.55;;
69246;SDS011;56358;56.328;43.992;2023-05-18T03:43:02;19.13;;;8.93;;
69246;SDS011;56358;56.328;43.992;2023-05-18T03:45:03;15.52;;;8.90;;
69246;SDS011;56358;56.328;43.992;2023-05-18T03:47:05;15.02;;;8.23;;
69246;SDS011;56358;56.328;43.992;2023-05-18T03:49:06;14.00;;;7.82;;
69246;SDS011;56358;56.328;43.992;2023-05-18T03:51:07;14.05;;;8.18;;
69246;SDS011;56358;56.328;43.992;2023-05-18T03:53:08;12.98;;;8.85;;
69246;SDS011;56358;56.328;43.992;2023-05-18T03:55:09;14.00;;;8.40;;
69246;SDS011;56358;56.328;43.992;2023-05-18T03:57:10;13.55;;;8.52;;
69246;SDS011;56358;56.328;43.992;2023-05-18T03:59:11;16.73;;;9.23;;
69246;SDS011;56358;56.328;43.992;2023-05-18T04:01:12;14.23;;;8.02;;
69246;SDS011;56358;56.328;43.992;2023-05-18T04:03:13;14.00;;;8.75;;
69246;SDS011;56358;56.328;43.992;2023-05-18T04:05:14;14.65;;;8.80;;
69246;SDS011;56358;56.328;43.992;2023-05-18T04:07:15;16.35;;;8.20;;
69246;SDS011;56358;56.328;43.992;2023-05-18T04:09:16;16.55;;;8.57;;
69246;SDS011;56358;56.328;43.992;2023-05-18T04:11:18;14.82;;;7.75;;
69246;SDS011;56358;56.328;43.992;2023-05-18T04:13:19;15.70;;;7.97;;
69246;SDS011;56358;56.328;43.992;2023-05-18T04:15:19;15.25;;;8.40;;
69246;SDS011;56358;56.328;43.992;2023-05-18T04:17:20;14.95;;;8.48;;
69246;SDS011;56358;56.328;43.992;2023-05-18T04:19:22;15.63;;;7.72;;
69246;SDS011;56358;56.328;43.992;2023-05-18T04:21:23;13.82;;;7.57;;
69246;SDS011;56358;56.328;43.992;2023-05-18T04:23:24;15.13;;;7.78;;
69246;SDS011;56358;56.328;43.992;2023-05-18T04:25:24;13.63;;;7.60;;
69246;SDS011;56358;56.328;43.992;2023-05-18T04:27:28;16.88;;;7.38;;
69246;SDS011;56358;56.328;43.992;2023-05-18T04:29:29;13.93;;;7.50;;
69246;SDS011;56358;56.328;43.992;2023-05-18T04:31:30;14.73;;;7.72;;
69246;SDS011;56358;56.328;43.992;2023-05-18T04:33:30;15.40;;;7.43;;
69246;SDS011;56358;56.328;43.992;2023-05-18T04:35:32;12.93;;;7.47;;
69246;SDS011;56358;56.328;43.992;2023-05-18T04:37:33;9.90;;;6.57;;
69246;SDS011;56358;56.328;43.992;2023-05-18T04:39:34;10.93;;;6.68;;
69246;SDS011;56358;56.328;43.992;2023-05-18T04:41:35;14.32;;;6.70;;
69246;SDS011;56358;56.328;43.992;2023-05-18T04:43:36;9.50;;;6.63;;
69246;SDS011;56358;56.328;43.992;2023-05-18T04:45:37;12.90;;;7.88;;
69246;SDS011;56358;56.328;43.992;2023-05-18T04:47:37;12.35;;;7.72;;
69246;SDS011;56358;56.328;43.992;2023-05-18T04:49:39;11.48;;;8.00;;
69246;SDS011;56358;56.328;43.992;2023-05-18T04:51:40;12.52;;;7.82;;
69246;SDS011;56358;56.328;43.992;2023-05-18T04:53:41;13.10;;;7.82;;
69246;SDS011;56358;56.328;43.992;2023-05-18T04:55:42;18.95;;;10.18;;
69246;SDS011;56358;56.328;43.992;2023-05-18T04:57:43;14.77;;;8.70;;
69246;SDS011;56358;56.328;43.992;2023-05-18T04:59:44;21.00;;;11.60;;
69246;SDS011;56358;56.328;43.992;2023-05-18T05:01:46;12.43;;;7.93;;
69246;SDS011;56358;56.328;43.992;2023-05-18T05:03:47;11.60;;;7.90;;
69246;SDS011;56358;56.328;43.992;2023-05-18T05:05:48;11.40;;;7.32;;
69246;SDS011;56358;56.328;43.992;2023-05-18T05:07:49;11.48;;;7.43;;
69246;SDS011;56358;56.328;43.992;2023-05-18T05:09:50;12.68;;;7.70;;
69246;SDS011;56358;56.328;43.992;2023-05-18T05:11:51;9.77;;;7.35;;
69246;SDS011;56358;56.328;43.992;2023-05-18T05:13:52;17.13;;;7.57;;
69246;SDS011;56358;56.328;43.992;2023-05-18T05:15:52;14.25;;;7.80;;
69246;SDS011;56358;56.328;43.992;2023-05-18T05:17:53;14.73;;;7.35;;
69246;SDS011;56358;56.328;43.992;2023-05-18T05:19:54;13.25;;;7.82;;
69246;SDS011;56358;56.328;43.992;2023-05-18T05:21:55;15.38;;;8.68;;
69246;SDS011;56358;56.328;43.992;2023-05-18T05:23:56;14.55;;;8.10;;
69246;SDS011;56358;56.328;43.992;2023-05-18T05:25:57;13.70;;;7.35;;
69246;SDS011;56358;56.328;43.992;2023-05-18T05:27:57;10.02;;;6.70;;
69246;SDS011;56358;56.328;43.992;2023-05-18T05:29:58;11.18;;;6.40;;
69246;SDS011;56358;56.328;43.992;2023-05-18T05:31:59;31.55;;;13.43;;
69246;SDS011;56358;56.328;43.992;2023-05-18T05:34:00;10.85;;;7.95;;
69246;SDS011;56358;56.328;43.992;2023-05-18T05:36:00;12.30;;;6.68;;
69246;SDS011;56358;56.328;43.992;2023-05-18T05:38:02;9.35;;;6.60;;
69246;SDS011;56358;56.328;43.992;2023-05-18T05:40:02;10.75;;;6.75;;
69246;SDS011;56358;56.328;43.992;2023-05-18T05:42:06;11.35;;;6.30;;
69246;SDS011;56358;56.328;43.992;2023-05-18T05:44:07;14.65;;;7.03;;
69246;SDS011;56358;56.328;43.992;2023-05-18T05:46:08;13.45;;;7.07;;
69246;SDS011;56358;56.328;43.992;2023-05-18T05:48:09;11.43;;;6.60;;
69246;SDS011;56358;56.328;43.992;2023-05-18T05:50:10;11.98;;;6.80;;
69246;SDS011;56358;56.328;43.992;2023-05-18T05:52:10;12.30;;;6.72;;
69246;SDS011;56358;56.328;43.992;2023-05-18T05:54:11;10.32;;;6.78;;
69246;SDS011;56358;56.328;43.992;2023-05-18T05:56:12;10.85;;;6.55;;
69246;SDS011;56358;56.328;43.992;2023-05-18T05:58:12;11.10;;;6.60;;
69246;SDS011;56358;56.328;43.992;2023-05-18T06:00:13;14.80;;;6.93;;
69246;SDS011;56358;56.328;43.992;2023-05-18T06:02:14;12.32;;;6.85;;
69246;SDS011;56358;56.328;43.992;2023-05-18T06:04:15;13.55;;;7.57;;
69246;SDS011;56358;56.328;43.992;2023-05-18T06:06:16;9.48;;;6.72;;
69246;SDS011;56358;56.328;43.992;2023-05-18T06:08:16;13.73;;;7.45;;
69246;SDS011;56358;56.328;43.992;2023-05-18T06:10:17;13.98;;;7.80;;
69246;SDS011;56358;56.328;43.992;2023-05-18T06:12:18;39.20;;;20.45;;
69246;SDS011;56358;56.328;43.992;2023-05-18T06:14:19;36.80;;;15.40;;
69246;SDS011;56358;56.328;43.992;2023-05-18T06:16:20;17.33;;;8.38;;
69246;SDS011;56358;56.328;43.992;2023-05-18T06:18:21;20.45;;;7.65;;
69246;SDS011;56358;56.328;43.992;2023-05-18T06:20:21;13.30;;;8.05;;
69246;SDS011;56358;56.328;43.992;2023-05-18T06:22:22;18.98;;;8.23;;
69246;SDS011;56358;56.328;43.992;2023-05-18T06:24:23;17.77;;;8.18;;
69246;SDS011;56358;56.328;43.992;2023-05-18T06:26:24;20.77;;;8.23;;
69246;SDS011;56358;56.328;43.992;2023-05-18T06:28:25;17.55;;;7.15;;
69246;SDS011;56358;56.328;43.992;2023-05-18T06:30:26;12.80;;;6.32;;
69246;SDS011;56358;56.328;43.992;2023-05-18T06:32:26;13.48;;;6.28;;
69246;SDS011;56358;56.328;43.992;2023-05-18T06:34:27;16.40;;;6.32;;
69246;SDS011;56358;56.328;43.992;2023-05-18T06:36:28;12.10;;;5.68;;
69246;SDS011;56358;56.328;43.992;2023-05-18T06:38:28;9.65;;;6.10;;
69246;SDS011;56358;56.328;43.992;2023-05-18T06:40:29;22.55;;;8.80;;
69246;SDS011;56358;56.328;43.992;2023-05-18T06:42:30;15.40;;;6.40;;
69246;SDS011;56358;56.328;43.992;2023-05-18T06:44:32;12.90;;;5.82;;
69246;SDS011;56358;56.328;43.992;2023-05-18T06:46:32;12.65;;;5.22;;
69246;SDS011;56358;56.328;43.992;2023-05-18T06:48:33;8.07;;;5.25;;
69246;SDS011;56358;56.328;43.992;2023-05-18T06:50:35;11.07;;;4.72;;
69246;SDS011;56358;56.328;43.992;2023-05-18T06:52:37;9.38;;;5.05;;
69246;SDS011;56358;56.328;43.992;2023-05-18T06:54:37;12.75;;;4.15;;
69246;SDS011;56358;56.328;43.992;2023-05-18T06:56:38;8.32;;;4.07;;
69246;SDS011;56358;56.328;43.992;2023-05-18T06:58:39;15.32;;;6.95;;
69246;SDS011;56358;56.328;43.992;2023-05-18T07:00:41;11.00;;;5.10;;
69246;SDS011;56358;56.328;43.992;2023-05-18T07:02:41;9.23;;;5.40;;
69246;SDS011;56358;56.328;43.992;2023-05-18T07:04:43;8.32;;;4.03;;
69246;SDS011;56358;56.328;43.992;2023-05-18T07:06:44;11.75;;;4.15;;
69246;SDS011;56358;56.328;43.992;2023-05-18T07:08:45;15.55;;;4.90;;
69246;SDS011;56358;56.328;43.992;2023-05-18T07:10:46;12.40;;;3.50;;
69246;SDS011;56358;56.328;43.992;2023-05-18T07:12:48;11.63;;;4.28;;
69246;SDS011;56358;56.328;43.992;2023-05-18T07:14:49;12.73;;;4.47;;
69246;SDS011;56358;56.328;43.992;2023-05-18T07:16:49;10.50;;;3.83;;
69246;SDS011;56358;56.328;43.992;2023-05-18T07:18:50;10.75;;;4.00;;
69246;SDS011;56358;56.328;43.992;2023-05-18T07:20:51;8.90;;;3.90;;
69246;SDS011;56358;56.328;43.992;2023-05-18T07:22:52;9.50;;;4.40;;
69246;SDS011;56358;56.328;43.992;2023-05-18T07:24:54;6.53;;;3.40;;
69246;SDS011;56358;56.328;43.992;2023-05-18T07:26:55;7.38;;;2.38;;
69246;SDS011;56358;56.328;43.992;2023-05-18T07:28:56;5.45;;;2.30;;
69246;SDS011;56358;56.328;43.992;2023-05-18T07:30:56;7.20;;;2.67;;
69246;SDS011;56358;56.328;43.992;2023-05-18T07:32:57;7.78;;;2.22;;
69246;SDS011;56358;56.328;43.992;2023-05-18T07:35:01;5.05;;;2.80;;
69246;SDS011;56358;56.328;43.992;2023-05-18T07:37:05;21.15;;;9.73;;
69246;SDS011;56358;56.328;43.992;2023-05-18T07:39:05;7.65;;;3.58;;
69246;SDS011;56358;56.328;43.992;2023-05-18T07:41:07;5.38;;;1.88;;
69246;SDS011;56358;56.328;43.992;2023-05-18T07:43:08;5.05;;;2.30;;
69246;SDS011;56358;56.328;43.992;2023-05-18T07:45:09;8.50;;;2.40;;
69246;SDS011;56358;56.328;43.992;2023-05-18T07:47:10;19.75;;;7.95;;
69246;SDS011;56358;56.328;43.992;2023-05-18T07:49:11;4.00;;;1.65;;
69246;SDS011;56358;56.328;43.992;2023-05-18T07:51:12;4.35;;;1.80;;
69246;SDS011;56358;56.328;43.992;2023-05-18T07:53:13;4.85;;;1.90;;
69246;SDS011;56358;56.328;43.992;2023-05-18T07:55:13;6.35;;;1.60;;
69246;SDS011;56358;56.328;43.992;2023-05-18T07:57:14;3.08;;;1.40;;
69246;SDS011;56358;56.328;43.992;2023-05-18T07:59:15;2.40;;;1.15;;
69246;SDS011;56358;56.328;43.992;2023-05-18T08:01:16;2.13;;;1.13;;
69246;SDS011;56358;56.328;43.992;2023-05-18T08:03:17;2.47;;;1.30;;
69246;SDS011;56358;56.328;43.992;2023-05-18T08:05:17;2.00;;;1.42;;
69246;SDS011;56358;56.328;43.992;2023-05-18T08:07:20;2.17;;;1.30;;
69246;SDS011;56358;56.328;43.992;2023-05-18T08:09:21;2.97;;;1.33;;
69246;SDS011;56358;56.328;43.992;2023-05-18T08:11:22;2.75;;;1.48;;
69246;SDS011;56358;56.328;43.992;2023-05-18T08:13:23;2.65;;;1.40;;
69246;SDS011;56358;56.328;43.992;2023-05-18T08:15:23;2.28;;;1.50;;
69246;SDS011;56358;56.328;43.992;2023-05-18T08:17:24;2.85;;;1.40;;
69246;SDS011;56358;56.328;43.992;2023-05-18T08:19:25;3.42;;;1.60;;
69246;SDS011;56358;56.328;43.992;2023-05-18T08:21:26;2.83;;;1.70;;
69246;SDS011;56358;56.328;43.992;2023-05-18T08:23:27;5.93;;;2.00;;
69246;SDS011;56358;56.328;43.992;2023-05-18T08:25:28;3.42;;;2.00;;
69246;SDS011;56358;56.328;43.992;2023-05-18T08:27:29;4.47;;;2.20;;
69246;SDS011;56358;56.328;43.992;2023-05-18T08:29:30;10.57;;;5.75;;
69246;SDS011;56358;56.328;43.992;2023-05-18T08:31:30;5.55;;;3.88;;
69246;SDS011;56358;56.328;43.992;2023-05-18T08:33:31;3.65;;;2.40;;
69246;SDS011;56358;56.328;43.992;2023-05-18T08:35:32;4.57;;;2.25;;
69246;SDS011;56358;56.328;43.992;2023-05-18T08:37:33;8.38;;;2.55;;
69246;SDS011;56358;56.328;43.992;2023-05-18T08:39:36;6.57;;;3.00;;
69246;SDS011;56358;56.328;43.992;2023-05-18T08:41:39;4.00;;;2.33;;
69246;SDS011;56358;56.328;43.992;2023-05-18T08:43:41;4.30;;;2.10;;
69246;SDS011;56358;56.328;43.992;2023-05-18T08:45:49;4.15;;;2.08;;
69246;SDS011;56358;56.328;43.992;2023-05-18T08:47:55;4.43;;;2.05;;
69246;SDS011;56358;56.328;43.992;2023-05-18T08:49:58;4.15;;;2.00;;
69246;SDS011;56358;56.328;43.992;2023-05-18T08:52:03;6.85;;;1.90;;
69246;SDS011;56358;56.328;43.992;2023-05-18T08:54:05;5.28;;;2.30;;
69246;SDS011;56358;56.328;43.992;2023-05-18T08:56:06;6.03;;;2.30;;
69246;SDS011;56358;56.328;43.992;2023-05-18T08:58:10;4.30;;;2.35;;
69246;SDS011;56358;56.328;43.992;2023-05-18T09:00:13;4.07;;;1.95;;
69246;SDS011;56358;56.328;43.992;2023-05-18T09:02:14;5.13;;;2.30;;
69246;SDS011;56358;56.328;43.992;2023-05-18T09:04:17;6.75;;;3.70;;
69246;SDS011;56358;56.328;43.992;2023-05-18T09:06:19;3.53;;;1.98;;
69246;SDS011;56358;56.328;43.992;2023-05-18T09:08:20;3.85;;;2.40;;
69246;SDS011;56358;56.328;43.992;2023-05-18T09:10:22;3.55;;;1.92;;
69246;SDS011;56358;56.328;43.992;2023-05-18T09:12:23;3.47;;;2.20;;
69246;SDS011;56358;56.328;43.992;2023-05-18T09:14:27;3.30;;;2.00;;
69246;SDS011;56358;56.328;43.992;2023-05-18T09:16:30;5.10;;;2.10;;
69246;SDS011;56358;56.328;43.992;2023-05-18T09:18:32;4.90;;;1.80;;
69246;SDS011;56358;56.328;43.992;2023-05-18T09:20:33;3.58;;;1.92;;
69246;SDS011;56358;56.328;43.992;2023-05-18T09:22:34;3.38;;;1.58;;
69246;SDS011;56358;56.328;43.992;2023-05-18T09:24:35;4.03;;;1.88;;
69246;SDS011;56358;56.328;43.992;2023-05-18T09:26:37;4.47;;;2.40;;
69246;SDS011;56358;56.328;43.992;2023-05-18T09:28:38;5.70;;;3.22;;
69246;SDS011;56358;56.328;43.992;2023-05-18T09:30:41;4.10;;;1.80;;
69246;SDS011;56358;56.328;43.992;2023-05-18T09:32:44;3.50;;;1.90;;
69246;SDS011;56358;56.328;43.992;2023-05-18T09:34:46;3.78;;;1.77;;
69246;SDS011;56358;56.328;43.992;2023-05-18T09:36:49;4.20;;;1.98;;
69246;SDS011;56358;56.328;43.992;2023-05-18T09:38:52;3.60;;;1.77;;
69246;SDS011;56358;56.328;43.992;2023-05-18T09:40:52;4.43;;;2.08;;
69246;SDS011;56358;56.328;43.992;2023-05-18T09:42:53;4.28;;;1.80;;
69246;SDS011;56358;56.328;43.992;2023-05-18T09:44:55;4.40;;;2.47;;
69246;SDS011;56358;56.328;43.992;2023-05-18T09:46:55;3.08;;;2.00;;
69246;SDS011;56358;56.328;43.992;2023-05-18T09:48:56;4.90;;;1.90;;
69246;SDS011;56358;56.328;43.992;2023-05-18T09:50:57;3.42;;;1.77;;
69246;SDS011;56358;56.328;43.992;2023-05-18T09:52:58;3.88;;;2.28;;
69246;SDS011;56358;56.328;43.992;2023-05-18T09:55:00;2.75;;;1.70;;
69246;SDS011;56358;56.328;43.992;2023-05-18T09:57:01;3.95;;;1.70;;
69246;SDS011;56358;56.328;43.992;2023-05-18T09:59:12;2.63;;;1.77;;
69246;SDS011;56358;56.328;43.992;2023-05-18T10:01:14;4.60;;;2.10;;
69246;SDS011;56358;56.328;43.992;2023-05-18T10:03:18;5.88;;;2.13;;
69246;SDS011;56358;56.328;43.992;2023-05-18T10:05:21;3.45;;;1.95;;
69246;SDS011;56358;56.328;43.992;2023-05-18T10:07:24;10.35;;;5.05;;
69246;SDS011;56358;56.328;43.992;2023-05-18T10:09:24;5.57;;;2.45;;
69246;SDS011;56358;56.328;43.992;2023-05-18T10:11:26;5.88;;;2.80;;
69246;SDS011;56358;56.328;43.992;2023-05-18T10:13:31;7.82;;;3.00;;
69246;SDS011;56358;56.328;43.992;2023-05-18T10:15:33;12.95;;;3.70;;
69246;SDS011;56358;56.328;43.992;2023-05-18T10:17:36;4.22;;;2.40;;
69246;SDS011;56358;56.328;43.992;2023-05-18T10:19:38;7.38;;;2.38;;
69246;SDS011;56358;56.328;43.992;2023-05-18T10:21:41;5.57;;;2.22;;
69246;SDS011;56358;56.328;43.992;2023-05-18T10:23:43;6.90;;;2.50;;
69246;SDS011;56358;56.328;43.992;2023-05-18T10:25:48;5.60;;;2.05;;
69246;SDS011;56358;56.328;43.992;2023-05-18T10:27:50;3.92;;;2.20;;
69246;SDS011;56358;56.328;43.992;2023-05-18T10:29:56;2.45;;;1.80;;
69246;SDS011;56358;56.328;43.992;2023-05-18T10:31:58;3.78;;;1.90;;
69246;SDS011;56358;56.328;43.992;2023-05-18T10:34:03;4.55;;;2.10;;
69246;SDS011;56358;56.328;43.992;2023-05-18T10:36:05;2.85;;;1.92;;
69246;SDS011;56358;56.328;43.992;2023-05-18T10:38:08;5.57;;;2.10;;
69246;SDS011;56358;56.328;43.992;2023-05-18T10:40:09;4.22;;;2.20;;
69246;SDS011;56358;56.328;43.992;2023-05-18T10:42:11;5.72;;;2.40;;
69246;SDS011;56358;56.328;43.992;2023-05-18T10:44:14;7.10;;;2.75;;
69246;SDS011;56358;56.328;43.992;2023-05-18T10:46:15;4.20;;;1.80;;
69246;SDS011;56358;56.328;43.992;2023-05-18T10:48:16;4.13;;;1.80;;
69246;SDS011;56358;56.328;43.992;2023-05-18T10:50:19;2.53;;;1.65;;
69246;SDS011;56358;56.328;43.992;2023-05-18T10:52:22;2.80;;;1.83;;
69246;SDS011;56358;56.328;43.992;2023-05-18T10:54:25;6.45;;;3.55;;
69246;SDS011;56358;56.328;43.992;2023-05-18T10:56:27;6.00;;;1.97;;
69246;SDS011;56358;56.328;43.992;2023-05-18T10:58:28;2.75;;;1.70;;
69246;SDS011;56358;56.328;43.992;2023-05-18T11:00:30;7.93;;;2.30;;
69246;SDS011;56358;56.328;43.992;2023-05-18T11:02:38;3.45;;;1.70;;
69246;SDS011;56358;56.328;43.992;2023-05-18T11:04:41;3.08;;;1.70;;
69246;SDS011;56358;56.328;43.992;2023-05-18T11:06:42;6.03;;;2.35;;
69246;SDS011;56358;56.328;43.992;2023-05-18T11:08:56;3.58;;;1.75;;
69246;SDS011;56358;56.328;43.992;2023-05-18T11:10:58;2.15;;;1.70;;
69246;SDS011;56358;56.328;43.992;2023-05-18T11:13:01;4.07;;;1.80;;
69246;SDS011;56358;56.328;43.992;2023-05-18T11:15:03;3.28;;;1.88;;
69246;SDS011;56358;56.328;43.992;2023-05-18T11:17:15;4.28;;;1.92;;
69246;SDS011;56358;56.328;43.992;2023-05-18T11:19:24;8.23;;;4.60;;
69246;SDS011;56358;56.328;43.992;2023-05-18T11:23:35;4.63;;;1.88;;
69246;SDS011;56358;56.328;43.992;2023-05-18T11:25:38;2.95;;;1.83;;
69246;SDS011;56358;56.328;43.992;2023-05-18T11:27:40;2.88;;;1.83;;
69246;SDS011;56358;56.328;43.992;2023-05-18T11:29:41;3.78;;;1.98;;
69246;SDS011;56358;56.328;43.992;2023-05-18T11:31:47;5.40;;;2.00;;
69246;SDS011;56358;56.328;43.992;2023-05-18T11:33:50;6.70;;;2.30;;
69246;SDS011;56358;56.328;43.992;2023-05-18T11:38:10;7.68;;;2.30;;
69246;SDS011;56358;56.328;43.992;2023-05-18T11:40:12;3.10;;;1.77;;
69246;SDS011;56358;56.328;43.992;2023-05-18T11:42:56;3.78;;;1.70;;
69246;SDS011;56358;56.328;43.992;2023-05-18T11:44:58;9.98;;;5.57;;
69246;SDS011;56358;56.328;43.992;2023-05-18T11:47:09;3.17;;;1.77;;
69246;SDS011;56358;56.328;43.992;2023-05-18T11:49:10;4.47;;;2.05;;
69246;SDS011;56358;56.328;43.992;2023-05-18T11:51:15;3.47;;;1.60;;
69246;SDS011;56358;56.328;43.992;2023-05-18T11:53:16;4.03;;;1.70;;
69246;SDS011;56358;56.328;43.992;2023-05-18T11:55:18;3.70;;;1.73;;
69246;SDS011;56358;56.328;43.992;2023-05-18T11:59:30;2.58;;;1.92;;
69246;SDS011;56358;56.328;43.992;2023-05-18T12:01:32;1.95;;;1.52;;
69246;SDS011;56358;56.328;43.992;2023-05-18T12:03:33;6.35;;;1.90;;
69246;SDS011;56358;56.328;43.992;2023-05-18T12:05:34;3.30;;;1.80;;
69246;SDS011;56358;56.328;43.992;2023-05-18T12:07:35;6.93;;;2.40;;
69246;SDS011;56358;56.328;43.992;2023-05-18T12:09:39;3.90;;;2.08;;
69246;SDS011;56358;56.328;43.992;2023-05-18T12:11:42;3.35;;;1.85;;
69246;SDS011;56358;56.328;43.992;2023-05-18T12:13:43;2.78;;;1.85;;